createdAt,value
2023-04-09T00:03:59.604Z,0.60
2023-04-09T00:08:04.268Z,0.60
2023-04-09T00:12:07.784Z,0.60
2023-04-09T00:16:11.330Z,0.50
2023-04-09T00:20:16.322Z,0.60
2023-04-09T00:24:19.837Z,0.60
2023-04-09T00:28:48.820Z,0.50
2023-04-09T00:32:54.604Z,0.40
2023-04-09T00:36:59.478Z,0.40
2023-04-09T00:41:03.750Z,0.50
2023-04-09T00:45:08.801Z,0.60
2023-04-09T00:49:12.343Z,0.60
2023-04-09T00:53:18.184Z,0.70
2023-04-09T00:57:21.948Z,0.70
2023-04-09T01:01:25.632Z,0.70
2023-04-09T01:05:37.105Z,0.70
2023-04-09T01:09:50.385Z,0.80
2023-04-09T01:14:18.131Z,0.80
2023-04-09T01:18:37.913Z,0.70
2023-04-09T01:22:57.821Z,0.80
2023-04-09T01:27:10.455Z,0.80
2023-04-09T01:36:41.256Z,0.80
2023-04-09T01:40:45.443Z,0.80
2023-04-09T01:44:49.978Z,0.80
2023-04-09T01:49:20.233Z,0.90
2023-04-09T01:53:23.990Z,0.80
2023-04-09T01:57:27.610Z,0.70
2023-04-09T02:06:15.414Z,0.70
2023-04-09T02:10:43.463Z,0.80
2023-04-09T02:14:55.908Z,0.80
2023-04-09T02:19:17.139Z,0.90
2023-04-09T02:23:58.450Z,0.90
2023-04-09T02:28:17.544Z,0.90
2023-04-09T02:32:25.516Z,1.00
2023-04-09T02:36:42.603Z,1.00
2023-04-09T02:41:01.231Z,1.00
2023-04-09T02:45:10.345Z,1.00
2023-04-09T02:49:18.834Z,1.10
2023-04-09T02:53:28.021Z,1.10
2023-04-09T02:57:38.841Z,1.10
2023-04-09T03:01:44.966Z,1.10
2023-04-09T03:05:53.680Z,1.20
2023-04-09T03:10:02.725Z,1.20
2023-04-09T03:14:09.585Z,1.20
2023-04-09T03:18:16.035Z,1.20
2023-04-09T03:22:29.174Z,1.20
2023-04-09T03:26:39.447Z,1.20
2023-04-09T03:30:54.187Z,1.20
2023-04-09T03:35:00.598Z,1.20
2023-04-09T03:39:07.957Z,1.20
2023-04-09T03:43:17.987Z,1.30
2023-04-09T03:47:38.811Z,1.30
2023-04-09T03:51:45.131Z,1.30
2023-04-09T03:55:59.230Z,1.30
2023-04-09T04:00:07.032Z,1.30
2023-04-09T04:04:30.303Z,1.20
2023-04-09T04:08:38.697Z,1.30
2023-04-09T04:12:46.643Z,1.20
2023-04-09T04:16:59.602Z,1.30
2023-04-09T04:21:19.282Z,1.30
2023-04-09T04:25:34.388Z,1.30
2023-04-09T04:29:44.370Z,1.30
2023-04-09T04:34:13.683Z,1.40
2023-04-09T04:38:39.333Z,1.30
2023-04-09T04:42:56.564Z,1.30
2023-04-09T04:47:21.205Z,1.30
2023-04-09T04:52:00.506Z,1.40
2023-04-09T04:56:17.184Z,1.40
2023-04-09T05:00:40.022Z,1.40
2023-04-09T05:04:50.576Z,1.50
2023-04-09T05:09:09.729Z,1.40
2023-04-09T05:14:11.051Z,1.50
2023-04-09T05:18:19.844Z,1.50
2023-04-09T05:27:14.237Z,1.50
2023-04-09T05:31:47.662Z,1.50
2023-04-09T05:40:48.787Z,1.60
2023-04-09T06:05:19.152Z,1.70
2023-04-09T06:52:04.528Z,1.90
2023-04-09T07:02:21.740Z,2.10
2023-04-09T07:06:36.754Z,2.20
2023-04-09T07:10:47.669Z,2.20
2023-04-09T07:14:54.443Z,2.30
2023-04-09T07:19:05.541Z,2.30
2023-04-09T07:23:11.128Z,2.40
2023-04-09T07:27:16.880Z,2.40
2023-04-09T07:31:23.784Z,2.40
2023-04-09T07:35:30.989Z,2.40
2023-04-09T07:39:37.576Z,2.80
2023-04-09T07:43:43.958Z,2.90
2023-04-09T07:47:51.780Z,3.20
2023-04-09T07:51:58.566Z,3.40
2023-04-09T07:56:05.196Z,3.40
2023-04-09T08:00:10.233Z,3.40
2023-04-09T08:04:18.686Z,3.40
2023-04-09T08:08:24.306Z,3.60
2023-04-09T08:12:29.849Z,3.90
2023-04-09T08:16:36.292Z,4.20
2023-04-09T08:20:45.382Z,4.30
2023-04-09T08:24:54.849Z,4.30
2023-04-09T08:28:58.628Z,4.30
2023-04-09T08:33:04.916Z,4.30
2023-04-09T08:37:09.671Z,4.30
2023-04-09T08:41:21.306Z,4.20
2023-04-09T08:45:26.210Z,4.10
2023-04-09T08:49:30.691Z,3.90
2023-04-09T08:53:41.872Z,3.70
2023-04-09T08:57:48.143Z,3.50
2023-04-09T09:01:54.753Z,3.60
2023-04-09T09:05:59.115Z,3.70
2023-04-09T09:10:04.855Z,3.90
2023-04-09T09:14:13.166Z,4.10
2023-04-09T09:18:17.005Z,4.20
2023-04-09T09:22:23.602Z,4.00
2023-04-09T09:26:30.409Z,3.80
2023-04-09T09:30:36.719Z,3.80
2023-04-09T09:34:41.302Z,3.80
2023-04-09T09:38:56.745Z,3.80
2023-04-09T09:43:02.521Z,3.90
2023-04-09T09:47:08.939Z,3.90
2023-04-09T09:51:15.163Z,3.90
2023-04-09T09:55:22.224Z,4.20
2023-04-09T09:59:34.249Z,4.50
2023-04-09T10:03:43.528Z,4.60
2023-04-09T10:07:49.707Z,4.80
2023-04-09T10:11:54.677Z,5.00
2023-04-09T10:15:59.171Z,5.20
2023-04-09T10:20:16.594Z,5.40
2023-04-09T10:24:21.584Z,5.50
2023-04-09T10:28:25.050Z,5.50
2023-04-09T10:32:29.459Z,5.20
2023-04-09T10:36:39.918Z,4.90
2023-04-09T10:40:51.546Z,4.70
2023-04-09T10:45:12.623Z,4.70
2023-04-09T10:49:19.681Z,4.60
2023-04-09T10:53:31.731Z,4.60
2023-04-09T10:57:36.655Z,4.40
2023-04-09T11:01:41.943Z,4.20
2023-04-09T11:05:53.456Z,4.10
2023-04-09T11:10:00.862Z,4.00
2023-04-09T11:14:09.323Z,4.10
2023-04-09T11:18:16.860Z,4.10
2023-04-09T11:22:21.416Z,4.20
2023-04-09T11:26:37.705Z,4.50
2023-04-09T11:30:47.106Z,4.60
2023-04-09T11:34:57.603Z,4.70
2023-04-09T11:39:04.461Z,4.90
2023-04-09T11:43:10.363Z,5.00
2023-04-09T11:47:15.082Z,5.10
2023-04-09T11:51:31.246Z,5.00
2023-04-09T11:55:36.093Z,4.90
2023-04-09T11:59:42.333Z,4.70
2023-04-09T12:03:47.291Z,4.50
2023-04-09T12:07:56.541Z,4.20
2023-04-09T12:12:02.353Z,4.30
2023-04-09T12:16:11.029Z,4.30
2023-04-09T12:20:17.407Z,4.30
2023-04-09T12:24:23.420Z,4.50
2023-04-09T12:28:27.350Z,4.70
2023-04-09T12:32:35.564Z,4.80
2023-04-09T12:36:41.976Z,4.90
2023-04-09T12:40:45.897Z,5.00
2023-04-09T12:44:49.387Z,5.10
2023-04-09T12:48:56.789Z,5.30
2023-04-09T12:53:00.026Z,5.60
2023-04-09T12:57:03.797Z,5.80
2023-04-09T13:01:07.649Z,5.80
2023-04-09T13:05:13.902Z,5.90
2023-04-09T13:09:18.077Z,6.00
2023-04-09T13:13:22.920Z,6.00
2023-04-09T13:17:26.670Z,6.10
2023-04-09T13:21:32.459Z,6.20
2023-04-09T13:25:36.137Z,6.40
2023-04-09T13:29:39.864Z,6.60
2023-04-09T13:33:43.593Z,6.60
2023-04-09T13:37:48.588Z,6.60
2023-04-09T13:41:52.129Z,6.30
2023-04-09T13:45:56.226Z,6.10
2023-04-09T13:49:59.776Z,5.90
2023-04-09T13:54:06.078Z,5.70
2023-04-09T13:58:10.976Z,5.50
2023-04-09T14:02:15.605Z,5.40
2023-04-09T14:06:22.179Z,5.20
2023-04-09T14:10:27.895Z,5.20
2023-04-09T14:14:33.696Z,5.00
2023-04-09T14:18:40.230Z,4.90
2023-04-09T14:22:50.108Z,4.80
2023-04-09T14:26:57.947Z,4.70
2023-04-09T14:31:02.416Z,4.70
2023-04-09T14:35:06.809Z,4.80
2023-04-09T14:39:16.216Z,4.90
2023-04-09T14:43:23.776Z,4.90
2023-04-09T14:47:27.915Z,4.80
2023-04-09T14:51:31.771Z,5.10
2023-04-09T14:55:36.642Z,5.20
2023-04-09T14:59:42.019Z,5.30
2023-04-09T15:03:47.234Z,5.50
2023-04-09T15:07:51.485Z,5.60
2023-04-09T15:11:56.489Z,5.70
2023-04-09T15:16:01.913Z,5.90
2023-04-09T15:20:06.293Z,6.00
2023-04-09T15:24:11.341Z,6.00
2023-04-09T15:28:16.148Z,6.20
2023-04-09T15:32:22.199Z,6.40
2023-04-09T15:36:29.180Z,6.50
2023-04-09T15:40:33.566Z,6.40
2023-04-09T15:44:41.449Z,6.20
2023-04-09T15:48:47.245Z,6.10
2023-04-09T15:52:51.319Z,6.10
2023-04-09T15:56:55.029Z,6.20
2023-04-09T16:00:59.496Z,6.30
2023-04-09T16:05:04.638Z,6.20
2023-04-09T16:09:08.978Z,6.00
2023-04-09T16:13:13.386Z,5.70
2023-04-09T16:17:17.245Z,5.50
2023-04-09T16:21:25.430Z,5.50
2023-04-09T16:25:31.747Z,5.40
2023-04-09T16:29:37.296Z,5.30
2023-04-09T16:33:42.145Z,5.20
2023-04-09T16:37:52.178Z,5.20
2023-04-09T16:41:56.038Z,5.20
2023-04-09T16:46:03.678Z,5.10
2023-04-09T16:50:12.142Z,5.00
2023-04-09T16:54:18.759Z,5.00
2023-04-09T16:58:22.355Z,4.90
2023-04-09T17:02:28.066Z,4.80
2023-04-09T17:06:34.104Z,4.70
2023-04-09T17:10:41.923Z,4.70
2023-04-09T17:14:46.378Z,4.70
2023-04-09T17:18:52.066Z,4.60
2023-04-09T17:22:57.427Z,4.60
2023-04-09T17:27:09.259Z,4.50
2023-04-09T17:31:17.302Z,4.30
2023-04-09T17:35:22.485Z,4.20
2023-04-09T17:39:30.500Z,4.20
2023-04-09T17:43:39.278Z,4.10
2023-04-09T17:47:44.114Z,4.00
2023-04-09T17:51:49.108Z,3.90
2023-04-09T17:55:55.474Z,3.90
2023-04-09T18:00:08.810Z,3.90
2023-04-09T18:04:23.856Z,3.90
2023-04-09T18:08:30.127Z,3.80
2023-04-09T18:12:36.790Z,3.80
2023-04-09T18:16:44.621Z,3.80
2023-04-09T18:20:55.238Z,3.80
2023-04-09T18:25:04.199Z,3.80
2023-04-09T18:29:08.837Z,3.70
2023-04-09T18:33:18.364Z,3.70
2023-04-09T18:37:23.729Z,3.70
2023-04-09T18:41:33.972Z,3.70
2023-04-09T18:45:43.438Z,3.70
2023-04-09T18:49:50.009Z,3.60
2023-04-09T18:54:03.703Z,3.60
2023-04-09T18:58:13.484Z,3.60
2023-04-09T19:02:19.854Z,3.60
2023-04-09T19:06:33.427Z,3.60
2023-04-09T19:10:37.947Z,3.60
2023-04-09T19:14:44.184Z,3.50
2023-04-09T19:18:50.417Z,3.50
2023-04-09T19:22:58.805Z,3.50
2023-04-09T19:27:10.368Z,3.50
2023-04-09T19:31:18.783Z,3.50
2023-04-09T19:35:41.330Z,3.40
2023-04-09T19:39:48.582Z,3.40
2023-04-09T19:43:54.460Z,3.40
2023-04-09T19:48:00.312Z,3.40
2023-04-09T19:52:18.372Z,3.40
2023-04-09T19:56:26.359Z,3.40
2023-04-09T20:00:34.758Z,3.30
2023-04-09T20:04:41.002Z,3.30
2023-04-09T20:08:45.883Z,3.20
2023-04-09T20:12:55.133Z,3.10
2023-04-09T20:17:05.010Z,3.00
2023-04-09T20:21:15.867Z,3.00
2023-04-09T20:25:21.963Z,2.90
2023-04-09T20:29:32.064Z,2.80
2023-04-09T20:33:40.511Z,2.80
2023-04-09T20:37:50.330Z,2.70
2023-04-09T20:42:05.666Z,2.70
2023-04-09T20:46:15.129Z,2.60
2023-04-09T20:50:23.550Z,2.60
2023-04-09T20:54:33.987Z,2.60
2023-04-09T20:58:49.011Z,2.50
2023-04-09T21:03:23.558Z,2.50
2023-04-09T21:07:34.704Z,2.40
2023-04-09T21:11:45.101Z,2.40
2023-04-09T21:15:55.294Z,2.40
2023-04-09T21:20:05.864Z,2.30
2023-04-09T21:24:16.489Z,2.30
2023-04-09T21:28:49.388Z,2.20
2023-04-09T21:33:02.410Z,2.20
2023-04-09T21:37:12.376Z,2.10
2023-04-09T21:42:03.020Z,2.10
2023-04-09T21:46:22.224Z,2.10
2023-04-09T21:50:33.632Z,2.00
2023-04-09T21:55:01.346Z,2.00
2023-04-09T21:59:16.564Z,1.90
2023-04-09T22:03:44.819Z,1.80
2023-04-09T22:07:53.836Z,1.80
2023-04-09T22:12:20.797Z,1.70
2023-04-09T22:16:29.598Z,1.70
2023-04-09T22:25:04.755Z,1.60
2023-04-09T22:29:16.325Z,1.60
2023-04-09T22:33:37.810Z,1.60
2023-04-09T22:37:48.985Z,1.50
2023-04-09T22:46:47.068Z,1.50
2023-04-09T22:51:10.663Z,1.50
2023-04-09T22:55:44.130Z,1.50
2023-04-09T23:00:13.617Z,1.50
2023-04-09T23:04:47.184Z,1.50
2023-04-09T23:13:34.421Z,1.50
2023-04-09T23:17:46.823Z,1.50
2023-04-09T23:22:09.139Z,1.40
2023-04-09T23:26:15.052Z,1.40
2023-04-09T23:30:34.859Z,1.40
2023-04-09T23:34:42.204Z,1.30
2023-04-09T23:39:01.084Z,1.30
2023-04-09T23:43:34.828Z,1.30
2023-04-09T23:57:38.945Z,1.30
